Archival Weather

Joint Base Andrews

Camp Springs, Maryland (KADW)

Report from: Tuesday, February 27, 2024 5:55 PM EST
Current time: Wednesday, May 29, 2024 8:34 PM EDT

Current weather – Weather history – Daily summaries
Weather forecast

Temperature15.1°C (59.2°F)
Dew point10.7°C (51.3°F)
Winds 16 kts (8.2 m/s, 18.4 mph) South (190°)
Wind gusts 24 kts (12.3 m/s, 27.6 mph)
Peak wind 27 kts (13.9 m/s, 31.1 mph) South (190°)
Visibility10 mi. (16.1 km)
Clouds Ceiling: Overcast 2,200 ft. (671 m)
Altimeter29.80 in.Hg (1009 mB)
Relative humidity75 %
Density altitude310 ft. (95 m)
Sea-level pressure101.0 kPa (1010 mB, 29.82 in.Hg)
Remarks Fully automated report
System requires maintenance
Automated weather observing station with precipitation discriminator
Ceiling
Flight conditions Marginal Visual Meteorological Conditions
Raw dataKADW 272255Z AUTO 19016G24KT 10SM OVC022 15/11 A2980 RMK AO2 PK WND 19027/04 CIG 021 RWY19L SLP098 T01510107 $
An error has occurred. This application may no longer respond until reloaded. Reload 🗙